Time;durP1;ratioP1;P1;durP2;ratioP2;P2;SDS_P1;SDS_P2;PMS_P1;PMS_P2;Temp;Humidity;BMP_temperature;BMP_pressure;BME280_temperature;BME280_humidity;BME280_pressure;Samples;Min_cycle;Max_cycle;Signal;HPM_P1;HPM_P2
2023/10/31 00:00:04;;;;;;;;;;;;;;;12.99;87.00;99086.50;4195274;28;20023;-70
2023/10/31 00:02:07;;;;;;;;;;;;;;;12.97;87.05;99084.03;4194277;28;20015;-69
2023/10/31 00:04:09;;;;;;;;;;;;;;;12.97;87.27;99083.22;4195512;28;19936;-70
2023/10/31 00:06:11;;;;;;;;;;;;;;;12.99;87.07;99102.78;4196215;28;20031;-70
2023/10/31 00:08:13;;;;;;;;;;;;;;;12.99;86.96;99105.47;4196281;28;20043;-69
2023/10/31 00:10:15;;;;;;;;;;;;;;;13.00;86.69;99103.63;4195388;28;20031;-68
2023/10/31 00:12:17;;;;;;;;;;;;;;;13.00;86.80;99092.78;4194748;28;20019;-69
2023/10/31 00:14:20;;;;;;;;;;;;;;;12.99;86.72;99100.06;4195655;28;20015;-69
2023/10/31 00:16:23;;;;;;;;;;;;;;;12.99;86.88;99105.47;4195487;28;20461;-70
2023/10/31 00:18:25;;;;;;;;;;;;;;;12.98;87.41;99101.97;4194741;28;19978;-69
2023/10/31 00:20:27;;;;;;;;;;;;;;;12.98;87.55;99098.44;4195324;28;20016;-69
2023/10/31 00:22:29;;;;;;;;;;;;;;;12.98;87.53;99088.41;4195620;28;19928;-69
2023/10/31 00:24:31;;;;;;;;;;;;;;;12.98;87.55;99084.88;4195076;28;19986;-70
2023/10/31 00:26:33;;;;;;;;;;;;;;;12.97;87.79;99080.50;4195337;28;20008;-66
2023/10/31 00:28:35;;;;;;;;;;;;;;;12.96;88.14;99079.69;4195949;28;20031;-68
2023/10/31 00:30:37;;;;;;;;;;;;;;;12.95;88.62;99080.75;4194327;28;20028;-68
2023/10/31 00:32:40;;;;;;;;;;;;;;;12.94;88.42;99068.25;4194347;28;20019;-68
2023/10/31 00:34:42;;;;;;;;;;;;;;;12.94;88.62;99062.00;4188137;28;20020;-69
2023/10/31 00:36:44;;;;;;;;;;;;;;;12.92;88.91;99070.38;4186633;28;20004;-69
2023/10/31 00:38:45;;;;;;;;;;;;;;;12.94;88.95;99083.69;4194580;28;20339;-68
2023/10/31 00:40:48;;;;;;;;;;;;;;;12.93;88.75;99076.59;4210861;28;20031;-70
2023/10/31 00:42:50;;;;;;;;;;;;;;;12.91;88.71;99068.72;4210619;28;20019;-69
2023/10/31 00:44:52;;;;;;;;;;;;;;;12.92;89.02;99064.94;4211052;28;19954;-70
2023/10/31 00:46:53;;;;;;;;;;;;;;;12.91;89.24;99068.72;4193987;28;20071;-69
2023/10/31 00:48:57;;;;;;;;;;;;;;;12.90;89.23;99067.06;4194401;28;19952;-70
2023/10/31 00:50:59;;;;;;;;;;;;;;;12.89;89.57;99067.31;4210807;28;20010;-69
2023/10/31 00:53:00;;;;;;;;;;;;;;;12.89;89.85;99078.16;4195378;28;20022;-70
2023/10/31 00:55:02;;;;;;;;;;;;;;;12.87;89.90;99081.09;4194827;28;19924;-70
2023/10/31 00:57:04;;;;;;;;;;;;;;;12.87;90.13;99078.38;4195352;28;20035;-70
2023/10/31 00:59:06;;;;;;;;;;;;;;;12.86;90.45;99071.28;4193801;28;20027;-70
2023/10/31 01:01:08;;;;;;;;;;;;;;;12.87;90.72;99064.84;4194502;28;20012;-69
2023/10/31 01:03:12;;;;;;;;;;;;;;;12.87;90.37;99062.13;4194738;28;20031;-70
2023/10/31 01:05:16;;;;;;;;;;;;;;;12.86;90.82;99052.34;4195509;28;20489;-68
2023/10/31 01:07:17;;;;;;;;;;;;;;;12.86;91.11;99046.91;4192330;28;20031;-69
2023/10/31 01:09:19;;;;;;;;;;;;;;;12.86;90.80;99046.91;4194045;28;19989;-69
2023/10/31 01:11:21;;;;;;;;;;;;;;;12.86;91.09;99036.06;4193933;28;20027;-69
2023/10/31 01:13:23;;;;;;;;;;;;;;;12.85;91.15;99037.13;4194372;28;20461;-70
2023/10/31 01:15:25;;;;;;;;;;;;;;;12.84;91.34;99029.25;4194583;28;20007;-69
2023/10/31 01:17:28;;;;;;;;;;;;;;;12.82;91.30;99032.19;4195155;28;20007;-69
2023/10/31 01:19:29;;;;;;;;;;;;;;;12.84;91.83;99034.69;4194334;28;20367;-70
2023/10/31 01:21:33;;;;;;;;;;;;;;;12.83;91.82;99028.41;4193757;28;20015;-69
2023/10/31 01:23:35;;;;;;;;;;;;;;;12.81;91.86;99019.69;4194771;28;20397;-70
2023/10/31 01:25:36;;;;;;;;;;;;;;;12.81;92.04;99000.75;4191102;28;20032;-68
2023/10/31 01:27:38;;;;;;;;;;;;;;;12.80;92.24;98980.97;4193421;28;19977;-70
2023/10/31 01:29:39;;;;;;;;;;;;;;;12.80;92.60;98994.50;4193410;28;20016;-67
2023/10/31 01:31:41;;;;;;;;;;;;;;;12.79;92.55;99024.53;4191853;28;19929;-70
2023/10/31 01:33:44;;;;;;;;;;;;;;;12.78;92.53;99033.72;4193540;28;20016;-70
2023/10/31 01:35:45;;;;;;;;;;;;;;;12.77;92.45;99018.50;4193680;28;20043;-66
2023/10/31 01:37:48;;;;;;;;;;;;;;;12.75;92.70;99005.19;4193613;28;20015;-69
2023/10/31 01:39:50;;;;;;;;;;;;;;;12.76;92.98;99009.56;4193009;28;20015;-70
2023/10/31 01:41:54;;;;;;;;;;;;;;;12.77;93.01;99013.09;4194434;28;20447;-69
2023/10/31 01:43:57;;;;;;;;;;;;;;;12.74;93.01;99000.00;4192944;28;19959;-70
2023/10/31 01:45:57;;;;;;;;;;;;;;;12.75;93.38;98998.97;4194677;28;19974;-70
2023/10/31 01:48:00;;;;;;;;;;;;;;;12.73;93.41;99004.63;4194096;28;20019;-69
2023/10/31 01:50:02;;;;;;;;;;;;;;;12.74;93.80;99003.56;4193686;28;20015;-70
2023/10/31 01:52:04;;;;;;;;;;;;;;;12.74;93.96;98986.47;4193794;28;20048;-70
2023/10/31 01:54:08;;;;;;;;;;;;;;;12.74;93.66;98989.19;4193012;28;20055;-69
2023/10/31 01:56:10;;;;;;;;;;;;;;;12.75;93.60;98982.72;4194425;28;20027;-69
2023/10/31 01:58:12;;;;;;;;;;;;;;;12.75;93.80;98988.94;4193244;28;20062;-69
2023/10/31 02:00:15;;;;;;;;;;;;;;;12.75;93.89;98982.72;4193423;28;20027;-69
2023/10/31 02:02:17;;;;;;;;;;;;;;;12.74;94.12;98981.91;4192040;28;20019;-70
2023/10/31 02:04:19;;;;;;;;;;;;;;;12.74;94.25;98981.06;4193698;28;20023;-70
2023/10/31 02:06:21;;;;;;;;;;;;;;;12.74;94.15;99002.72;4209729;28;19925;-69
2023/10/31 02:08:22;;;;;;;;;;;;;;;12.72;94.14;98975.88;4194088;28;20438;-69
2023/10/31 02:10:28;;;;;;;;;;;;;;;12.72;94.21;98977.75;4193057;28;20023;-69
2023/10/31 02:12:32;;;;;;;;;;;;;;;12.70;94.29;98969.06;4193285;28;20430;-70
2023/10/31 02:14:34;;;;;;;;;;;;;;;12.70;95.00;98955.50;4193493;28;20023;-69
2023/10/31 02:16:35;;;;;;;;;;;;;;;12.70;94.77;98960.94;4193685;28;20027;-70
2023/10/31 02:18:37;;;;;;;;;;;;;;;12.71;94.82;98958.00;4192046;28;20019;-70
2023/10/31 02:20:39;;;;;;;;;;;;;;;12.71;94.45;98958.00;4192661;28;20063;-70
2023/10/31 02:22:43;;;;;;;;;;;;;;;12.71;94.66;98949.84;4191409;28;20438;-70
2023/10/31 02:24:45;;;;;;;;;;;;;;;12.72;94.79;98942.56;4193435;28;20051;-69
2023/10/31 02:26:47;;;;;;;;;;;;;;;12.72;94.64;98939.84;4192535;28;19924;-69
2023/10/31 02:28:50;;;;;;;;;;;;;;;12.71;94.70;98932.75;4193170;28;20019;-69
2023/10/31 02:30:52;;;;;;;;;;;;;;;12.70;95.11;98934.66;4191701;28;20051;-70
2023/10/31 02:32:53;;;;;;;;;;;;;;;12.69;95.10;98938.41;4191917;28;20075;-70
2023/10/31 02:34:56;;;;;;;;;;;;;;;12.68;94.94;98930.53;4191542;28;20445;-69
2023/10/31 02:36:58;;;;;;;;;;;;;;;12.67;95.31;98934.31;4191593;28;20861;-70
2023/10/31 02:39:01;;;;;;;;;;;;;;;12.65;95.23;98934.53;4191728;28;20023;-69
2023/10/31 02:41:03;;;;;;;;;;;;;;;12.64;94.85;98923.94;4193698;28;20032;-70
2023/10/31 02:43:05;;;;;;;;;;;;;;;12.61;94.92;98927.94;4200809;28;19924;-70
2023/10/31 02:45:09;;;;;;;;;;;;;;;12.59;95.01;98919.22;4176447;28;20016;-69
2023/10/31 02:47:11;;;;;;;;;;;;;;;12.59;95.28;98924.66;4192979;28;19928;-70
2023/10/31 02:49:13;;;;;;;;;;;;;;;12.58;95.32;98921.09;4193879;28;20015;-70
2023/10/31 02:51:15;;;;;;;;;;;;;;;12.55;95.24;98924.28;4192669;28;20023;-70
2023/10/31 02:53:17;;;;;;;;;;;;;;;12.54;95.45;98925.34;4192987;28;20019;-70
2023/10/31 02:55:21;;;;;;;;;;;;;;;12.52;95.53;98913.91;4191762;28;20045;-70
2023/10/31 02:57:21;;;;;;;;;;;;;;;12.50;95.67;98923.34;4209862;28;20047;-70
2023/10/31 02:59:24;;;;;;;;;;;;;;;12.49;95.52;98918.97;4191737;28;20015;-67
2023/10/31 03:01:28;;;;;;;;;;;;;;;12.46;96.01;98908.63;4191050;28;20036;-70
2023/10/31 03:03:30;;;;;;;;;;;;;;;12.44;95.92;98907.00;4192875;28;20015;-69
2023/10/31 03:05:33;;;;;;;;;;;;;;;12.42;96.05;98903.66;4192116;28;20429;-68
2023/10/31 03:07:35;;;;;;;;;;;;;;;12.42;96.48;98894.72;4192240;28;19967;-70
2023/10/31 03:09:37;;;;;;;;;;;;;;;12.42;96.60;98898.25;4192948;28;20019;-71
2023/10/31 03:11:40;;;;;;;;;;;;;;;12.42;96.51;98910.97;4192391;28;20019;-70
2023/10/31 03:13:42;;;;;;;;;;;;;;;12.41;96.28;98901.19;4193032;28;20434;-70
2023/10/31 03:15:43;;;;;;;;;;;;;;;12.41;96.79;98902.03;4192107;28;20015;-70
2023/10/31 03:17:45;;;;;;;;;;;;;;;12.41;96.68;98903.91;4193321;28;19936;-70
2023/10/31 03:19:47;;;;;;;;;;;;;;;12.41;96.80;98904.75;4193037;28;20020;-70
2023/10/31 03:21:48;;;;;;;;;;;;;;;12.39;97.00;98904.13;4192524;28;20007;-70
2023/10/31 03:23:52;;;;;;;;;;;;;;;12.38;96.86;98905.22;4193622;28;20015;-70
2023/10/31 03:25:53;;;;;;;;;;;;;;;12.39;96.90;98908.72;4194471;28;20027;-70
2023/10/31 03:27:57;;;;;;;;;;;;;;;12.38;97.07;98913.34;4196378;28;20306;-70
2023/10/31 03:29:58;;;;;;;;;;;;;;;12.39;97.13;98904.13;4195717;28;20019;-70
2023/10/31 03:32:00;;;;;;;;;;;;;;;12.39;97.17;98908.72;4195962;28;20011;-68
2023/10/31 03:34:01;;;;;;;;;;;;;;;12.39;97.09;98912.25;4195363;28;20019;-69
2023/10/31 03:36:06;;;;;;;;;;;;;;;12.38;97.22;98909.78;4196406;28;19928;-72
2023/10/31 03:38:07;;;;;;;;;;;;;;;12.38;97.17;98904.38;4195856;28;20011;-70
2023/10/31 03:40:10;;;;;;;;;;;;;;;12.38;97.03;98913.34;4196410;28;20026;-70
2023/10/31 03:42:12;;;;;;;;;;;;;;;12.38;97.17;98916.03;4195089;28;20011;-70
2023/10/31 03:44:15;;;;;;;;;;;;;;;12.37;97.13;98917.09;4196040;28;20035;-71
2023/10/31 03:46:17;;;;;;;;;;;;;;;12.36;97.11;98912.72;4196320;28;20387;-70
2023/10/31 03:48:18;;;;;;;;;;;;;;;12.37;97.03;98917.09;4195712;28;20493;-70
2023/10/31 03:50:20;;;;;;;;;;;;;;;12.34;97.51;98912.13;4194781;28;20022;-70
2023/10/31 03:52:22;;;;;;;;;;;;;;;12.33;97.64;98913.19;4194576;28;20015;-70
2023/10/31 03:54:24;;;;;;;;;;;;;;;12.33;97.39;98918.59;4195900;28;20433;-70
2023/10/31 03:56:26;;;;;;;;;;;;;;;12.34;97.55;98922.16;4195813;28;20014;-70
2023/10/31 03:58:28;;;;;;;;;;;;;;;12.33;97.55;98917.78;4194780;28;20476;-71
2023/10/31 04:00:32;;;;;;;;;;;;;;;12.32;97.67;98921.53;4210898;28;20457;-69
2023/10/31 04:02:33;;;;;;;;;;;;;;;12.33;97.63;98923.19;4193603;28;20743;-71
2023/10/31 04:04:35;;;;;;;;;;;;;;;12.33;97.58;98920.50;4196147;28;20016;-71
2023/10/31 04:06:39;;;;;;;;;;;;;;;12.29;97.48;98922.84;4195398;28;20014;-71
2023/10/31 04:08:41;;;;;;;;;;;;;;;12.27;97.95;98914.13;4187369;28;20223;-70
2023/10/31 04:10:43;;;;;;;;;;;;;;;12.28;97.87;98914.97;4211091;28;20446;-69
2023/10/31 04:12:45;;;;;;;;;;;;;;;12.28;98.24;98923.91;4195242;28;20011;-70
2023/10/31 04:14:47;;;;;;;;;;;;;;;12.25;98.13;98918.94;4196707;28;20031;-70
2023/10/31 04:16:51;;;;;;;;;;;;;;;12.23;98.49;98923.78;4195653;28;20476;-70
2023/10/31 04:18:53;;;;;;;;;;;;;;;12.22;98.49;98919.41;4194862;28;20023;-70
2023/10/31 04:20:55;;;;;;;;;;;;;;;12.21;98.69;98917.75;4194523;28;20019;-70
2023/10/31 04:22:57;;;;;;;;;;;;;;;12.20;98.77;98913.41;4195490;28;20433;-70
2023/10/31 04:24:59;;;;;;;;;;;;;;;12.20;98.91;98916.13;4195021;28;20007;-70
2023/10/31 04:27:01;;;;;;;;;;;;;;;12.20;99.13;98913.41;4194596;28;20020;-70
2023/10/31 04:29:03;;;;;;;;;;;;;;;12.19;99.03;98914.47;4196019;28;20418;-70
2023/10/31 04:31:05;;;;;;;;;;;;;;;12.18;99.41;98912.84;4193731;28;20497;-69
2023/10/31 04:33:08;;;;;;;;;;;;;;;12.14;99.17;98898.09;4193229;28;20019;-71
2023/10/31 04:35:10;;;;;;;;;;;;;;;12.18;99.38;98907.41;4194926;28;20011;-70
2023/10/31 04:37:12;;;;;;;;;;;;;;;12.19;99.35;98912.56;4194438;28;20501;-70
2023/10/31 04:39:14;;;;;;;;;;;;;;;12.19;99.32;98914.47;4194777;28;20848;-70
2023/10/31 04:41:16;;;;;;;;;;;;;;;12.20;99.38;98914.22;4194815;28;20330;-70
2023/10/31 04:43:18;;;;;;;;;;;;;;;12.20;99.44;98903.41;4194152;28;20669;-70
2023/10/31 04:45:19;;;;;;;;;;;;;;;12.20;99.31;98908.81;4194319;28;20039;-70
2023/10/31 04:47:21;;;;;;;;;;;;;;;12.20;99.47;98900.69;4192177;28;19936;-69
2023/10/31 04:49:24;;;;;;;;;;;;;;;12.21;99.10;98907.78;4193988;28;20024;-71
2023/10/31 04:51:26;;;;;;;;;;;;;;;12.21;99.36;98907.78;4194556;28;20032;-69
2023/10/31 04:53:28;;;;;;;;;;;;;;;12.20;99.25;98899.88;4194258;28;20015;-68
2023/10/31 04:55:30;;;;;;;;;;;;;;;12.20;99.42;98910.72;4193501;28;20015;-68
2023/10/31 04:57:32;;;;;;;;;;;;;;;12.20;99.20;98911.53;4193948;28;20055;-71
2023/10/31 04:59:34;;;;;;;;;;;;;;;12.21;99.50;98901.50;4187775;28;20107;-71
2023/10/31 05:01:36;;;;;;;;;;;;;;;12.20;99.46;98900.69;4191299;28;20019;-71
2023/10/31 05:03:38;;;;;;;;;;;;;;;12.20;99.59;98905.31;4193795;28;20509;-71
2023/10/31 05:05:42;;;;;;;;;;;;;;;12.22;99.16;98909.41;4195108;28;20019;-71
2023/10/31 05:07:43;;;;;;;;;;;;;;;12.19;99.63;98904.44;4194099;28;20013;-72
2023/10/31 05:09:45;;;;;;;;;;;;;;;12.19;99.38;98899.03;4193151;28;20306;-71
2023/10/31 05:11:47;;;;;;;;;;;;;;;12.18;99.39;98904.72;4192222;28;20644;-71
2023/10/31 05:13:49;;;;;;;;;;;;;;;12.16;99.86;98904.94;4193641;28;20077;-71
2023/10/31 05:15:51;;;;;;;;;;;;;;;12.15;100.00;98914.13;4190412;28;20019;-71
2023/10/31 05:17:53;;;;;;;;;;;;;;;12.15;100.00;98905.19;4191014;28;20032;-70
2023/10/31 05:19:55;;;;;;;;;;;;;;;12.15;100.00;98902.47;4192695;28;20011;-70
2023/10/31 05:21:58;;;;;;;;;;;;;;;12.16;100.00;98895.97;4192711;28;20372;-71
2023/10/31 05:23:59;;;;;;;;;;;;;;;12.16;100.00;98899.53;4192513;28;20015;-68
2023/10/31 05:26:01;;;;;;;;;;;;;;;12.15;100.00;98895.16;4193542;28;20434;-70
2023/10/31 05:28:04;;;;;;;;;;;;;;;12.15;100.00;98894.34;4194664;28;20411;-71
2023/10/31 05:30:06;;;;;;;;;;;;;;;12.14;100.00;98901.63;4192619;28;20030;-71
2023/10/31 05:32:08;;;;;;;;;;;;;;;12.14;100.00;98906.22;4192498;28;20028;-71
2023/10/31 05:34:09;;;;;;;;;;;;;;;12.16;100.00;98904.09;4194956;28;20027;-71
2023/10/31 05:36:18;;;;;;;;;;;;;;;12.15;100.00;98908.69;4195287;28;20458;-71
2023/10/31 05:38:21;;;;;;;;;;;;;;;12.17;100.00;98906.56;4194404;28;20028;-71
2023/10/31 05:40:26;;;;;;;;;;;;;;;12.18;100.00;98910.13;4194151;28;20011;-71
2023/10/31 05:42:28;;;;;;;;;;;;;;;12.18;100.00;98910.94;4193971;28;20015;-71
2023/10/31 05:44:30;;;;;;;;;;;;;;;12.18;100.00;98908.25;4192631;28;20051;-71
2023/10/31 05:46:32;;;;;;;;;;;;;;;12.19;100.00;98909.88;4191746;28;20029;-70
2023/10/31 05:48:34;;;;;;;;;;;;;;;12.19;100.00;98915.28;4194236;28;20020;-71
2023/10/31 05:50:36;;;;;;;;;;;;;;;12.19;100.00;98900.94;4193483;28;19960;-70
2023/10/31 05:52:37;;;;;;;;;;;;;;;12.19;100.00;98912.56;4192140;28;20430;-71
2023/10/31 05:54:41;;;;;;;;;;;;;;;12.20;100.00;98913.41;4193308;28;20015;-71
2023/10/31 05:56:44;;;;;;;;;;;;;;;12.21;100.00;98905.06;4193928;28;20046;-70
2023/10/31 05:58:46;;;;;;;;;;;;;;;12.22;100.00;98914.81;4193672;28;20014;-70
2023/10/31 06:00:48;;;;;;;;;;;;;;;12.23;100.00;98908.34;4192611;28;20131;-71
2023/10/31 06:02:51;;;;;;;;;;;;;;;12.24;100.00;98909.16;4192541;28;20361;-71
2023/10/31 06:04:53;;;;;;;;;;;;;;;12.22;100.00;98917.53;4194066;28;20023;-69
2023/10/31 06:06:55;;;;;;;;;;;;;;;12.24;100.00;98920.00;4194057;28;20011;-71
2023/10/31 06:08:56;;;;;;;;;;;;;;;12.23;100.00;98916.47;4193641;28;20019;-71
2023/10/31 06:11:00;;;;;;;;;;;;;;;12.24;100.00;98920.00;4191454;28;20011;-70
2023/10/31 06:13:01;;;;;;;;;;;;;;;12.26;100.00;98926.84;4191942;28;20015;-70
2023/10/31 06:15:03;;;;;;;;;;;;;;;12.29;100.00;98913.88;4193627;28;19928;-70
2023/10/31 06:17:05;;;;;;;;;;;;;;;12.29;100.00;98924.72;4194270;28;19975;-70
2023/10/31 06:19:07;;;;;;;;;;;;;;;12.29;100.00;98925.56;4193948;28;20011;-69
2023/10/31 06:21:09;;;;;;;;;;;;;;;12.31;100.00;98933.44;4192599;28;20034;-75
2023/10/31 06:23:11;;;;;;;;;;;;;;;12.31;100.00;98936.97;4194063;28;20015;-69
2023/10/31 06:25:13;;;;;;;;;;;;;;;12.32;100.00;98946.75;4190184;28;20015;-71
2023/10/31 06:27:17;;;;;;;;;;;;;;;12.33;100.00;98945.66;4194300;28;20015;-73
2023/10/31 06:29:19;;;;;;;;;;;;;;;12.36;100.00;98956.03;4192027;28;20628;-69
2023/10/31 06:31:21;;;;;;;;;;;;;;;12.36;100.00;98949.81;4191109;28;19972;-70
2023/10/31 06:33:23;;;;;;;;;;;;;;;12.37;100.00;98946.06;4193900;28;20025;-74
2023/10/31 06:35:25;;;;;;;;;;;;;;;12.38;100.00;98953.09;4192264;28;20131;-71
2023/10/31 06:37:27;;;;;;;;;;;;;;;12.39;100.00;98952.88;4190394;28;20008;-73
2023/10/31 06:39:29;;;;;;;;;;;;;;;12.42;100.00;98967.84;4192705;28;20032;-70
2023/10/31 06:41:31;;;;;;;;;;;;;;;12.42;100.00;98960.53;4190017;28;19930;-70
2023/10/31 06:43:34;;;;;;;;;;;;;;;12.48;100.00;98963.38;4192058;28;20386;-75
2023/10/31 06:45:36;;;;;;;;;;;;;;;12.51;100.00;98966.44;4188491;28;20047;-70
2023/10/31 06:47:37;;;;;;;;;;;;;;;12.53;100.00;98971.63;4192266;28;20462;-70
2023/10/31 06:49:39;;;;;;;;;;;;;;;12.55;100.00;98958.66;4191981;28;19925;-71
2023/10/31 06:51:41;;;;;;;;;;;;;;;12.57;100.00;98961.94;4192860;28;19933;-72
2023/10/31 06:53:42;;;;;;;;;;;;;;;12.58;100.00;98971.72;4193341;28;20049;-71
2023/10/31 06:55:44;;;;;;;;;;;;;;;12.58;100.00;98972.56;4190980;28;19925;-70
2023/10/31 06:57:46;;;;;;;;;;;;;;;12.60;100.00;98975.03;4197105;28;20597;-70
2023/10/31 06:59:50;;;;;;;;;;;;;;;12.62;100.00;98981.06;4195041;28;20019;-67
2023/10/31 07:01:52;;;;;;;;;;;;;;;12.66;100.00;98987.63;4193279;28;20019;-69
2023/10/31 07:03:55;;;;;;;;;;;;;;;12.66;100.00;98987.63;4194662;28;20019;-68
2023/10/31 07:05:56;;;;;;;;;;;;;;;12.68;100.00;98985.53;4195152;28;20011;-68
2023/10/31 07:07:58;;;;;;;;;;;;;;;12.67;100.00;98996.59;4195109;28;20030;-70
2023/10/31 07:10:00;;;;;;;;;;;;;;;12.69;100.00;98995.28;4193738;28;20026;-71
2023/10/31 07:12:02;;;;;;;;;;;;;;;12.68;100.00;98996.38;4196006;28;20023;-71
2023/10/31 07:14:07;;;;;;;;;;;;;;;12.69;100.00;99005.31;4197470;28;19925;-69
2023/10/31 07:16:10;;;;;;;;;;;;;;;12.70;100.00;98996.97;4196534;28;20007;-70
2023/10/31 07:18:15;;;;;;;;;;;;;;;12.72;100.00;99005.66;4197144;28;19924;-74
2023/10/31 07:20:17;;;;;;;;;;;;;;;12.73;100.00;99007.31;4195942;28;20020;-70
2023/10/31 07:22:19;;;;;;;;;;;;;;;12.73;100.00;99001.09;4194454;28;20023;-70
2023/10/31 07:24:21;;;;;;;;;;;;;;;12.74;100.00;99017.13;4194962;28;20371;-71
2023/10/31 07:26:23;;;;;;;;;;;;;;;12.76;100.00;99011.47;4194675;28;20015;-70
2023/10/31 07:28:25;;;;;;;;;;;;;;;12.79;100.00;99016.41;4195438;28;20454;-70
2023/10/31 07:30:27;;;;;;;;;;;;;;;12.79;100.00;99019.13;4195858;28;20023;-71
2023/10/31 07:32:30;;;;;;;;;;;;;;;12.78;100.00;99031.00;4195096;28;19935;-72
2023/10/31 07:34:32;;;;;;;;;;;;;;;12.80;100.00;99051.41;4195540;28;20016;-69
2023/10/31 07:36:35;;;;;;;;;;;;;;;12.81;100.00;99038.66;4196222;28;20023;-69
2023/10/31 07:38:37;;;;;;;;;;;;;;;12.82;100.00;99044.91;4196380;28;19940;-72
2023/10/31 07:40:39;;;;;;;;;;;;;;;12.81;100.00;99052.22;4196636;28;20456;-71
2023/10/31 07:42:41;;;;;;;;;;;;;;;12.81;100.00;99054.91;4196160;28;20291;-71
2023/10/31 07:44:42;;;;;;;;;;;;;;;12.82;100.00;99063.88;4195945;28;20019;-73
2023/10/31 07:46:44;;;;;;;;;;;;;;;12.82;100.00;99080.13;4195372;28;20691;-69
2023/10/31 07:48:47;;;;;;;;;;;;;;;12.82;99.46;99062.00;4195770;28;20447;-69
2023/10/31 07:50:49;;;;;;;;;;;;;;;12.81;98.58;99073.88;4195070;28;20063;-70
2023/10/31 07:52:52;;;;;;;;;;;;;;;12.81;97.02;99103.69;4194832;28;20466;-73
2023/10/31 07:54:56;;;;;;;;;;;;;;;12.84;94.96;99059.06;4195249;28;20456;-69
2023/10/31 07:56:58;;;;;;;;;;;;;;;12.77;94.39;99068.13;4194802;28;20015;-69
2023/10/31 07:58:59;;;;;;;;;;;;;;;12.74;93.57;99062.31;4195777;28;20018;-70
2023/10/31 08:01:01;;;;;;;;;;;;;;;12.70;93.10;99056.53;4191324;28;20020;-70
2023/10/31 08:03:03;;;;;;;;;;;;;;;12.67;92.59;99067.03;4193398;28;20032;-71
2023/10/31 08:05:07;;;;;;;;;;;;;;;12.66;92.52;99062.66;4193257;28;20031;-70
2023/10/31 08:07:10;;;;;;;;;;;;;;;12.64;92.31;99065.59;4191816;28;19950;-70
2023/10/31 08:09:12;;;;;;;;;;;;;;;12.63;92.15;99066.66;4192268;28;20023;-70
2023/10/31 08:11:14;;;;;;;;;;;;;;;12.60;91.80;99073.38;4193439;28;20027;-70
2023/10/31 08:13:16;;;;;;;;;;;;;;;12.61;92.30;99071.47;4193927;28;19970;-70
2023/10/31 08:15:18;;;;;;;;;;;;;;;12.60;91.94;99084.19;4188095;28;20011;-70
2023/10/31 08:17:20;;;;;;;;;;;;;;;12.56;92.47;99072.16;4190877;28;20406;-70
2023/10/31 08:19:22;;;;;;;;;;;;;;;12.62;92.08;99084.78;4175987;28;21295;-70
2023/10/31 08:21:28;;;;;;;;;;;;;;;12.62;91.65;99102.94;4194927;28;20422;-70
2023/10/31 08:23:30;;;;;;;;;;;;;;;12.62;91.49;99105.63;4188720;28;20039;-70
2023/10/31 08:25:32;;;;;;;;;;;;;;;12.64;91.33;99100.00;4193714;28;20019;-70
2023/10/31 08:27:34;;;;;;;;;;;;;;;12.62;90.99;99101.03;4195061;28;20031;-69
2023/10/31 08:29:36;;;;;;;;;;;;;;;12.61;90.52;99122.94;4195216;28;20062;-70
2023/10/31 08:31:38;;;;;;;;;;;;;;;12.60;90.23;99124.81;4193255;28;20023;-70
2023/10/31 08:33:40;;;;;;;;;;;;;;;12.59;89.78;99115.03;4193606;28;19924;-70
2023/10/31 08:35:42;;;;;;;;;;;;;;;12.60;89.22;99113.16;4195104;28;20027;-70
2023/10/31 08:37:46;;;;;;;;;;;;;;;12.59;89.03;99116.94;4195291;28;20020;-70
2023/10/31 08:39:47;;;;;;;;;;;;;;;12.59;88.83;99125.88;4194194;28;20027;-70
2023/10/31 08:41:51;;;;;;;;;;;;;;;12.60;88.26;99122.13;4193815;28;20091;-70
2023/10/31 08:43:53;;;;;;;;;;;;;;;12.61;88.22;99128.34;4195464;28;20016;-70
2023/10/31 08:45:55;;;;;;;;;;;;;;;12.64;87.59;99127.06;4193801;28;20438;-70
2023/10/31 08:47:57;;;;;;;;;;;;;;;12.62;87.12;99133.53;4194152;28;20462;-70
2023/10/31 08:49:58;;;;;;;;;;;;;;;12.64;86.93;99136.03;4194342;28;20027;-70
2023/10/31 08:52:01;;;;;;;;;;;;;;;12.59;86.63;99120.47;4194748;28;19925;-70
2023/10/31 08:54:05;;;;;;;;;;;;;;;12.63;86.53;99131.66;4194775;28;19932;-70
2023/10/31 08:56:08;;;;;;;;;;;;;;;12.65;86.42;99140.38;4195294;28;20436;-69
2023/10/31 08:58:10;;;;;;;;;;;;;;;12.65;86.14;99136.84;4195006;28;20028;-70
2023/10/31 09:00:13;;;;;;;;;;;;;;;12.68;86.04;99145.34;4194336;28;20019;-70
2023/10/31 09:02:15;;;;;;;;;;;;;;;12.66;85.75;99141.22;4193787;28;20549;-70
2023/10/31 09:04:16;;;;;;;;;;;;;;;12.69;85.70;99154.28;4193988;28;20032;-70
2023/10/31 09:06:18;;;;;;;;;;;;;;;12.71;85.83;99166.56;4194425;28;20425;-70
2023/10/31 09:08:19;;;;;;;;;;;;;;;12.76;85.25;99176.72;4194572;28;20027;-70
2023/10/31 09:10:23;;;;;;;;;;;;;;;12.79;83.98;99176.25;4194304;28;20629;-70
2023/10/31 09:12:25;;;;;;;;;;;;;;;12.73;83.08;99177.16;4193929;28;20020;-70
2023/10/31 09:14:27;;;;;;;;;;;;;;;12.74;83.21;99197.75;4193260;28;20693;-70
2023/10/31 09:16:29;;;;;;;;;;;;;;;12.77;83.59;99181.91;4194440;28;20011;-69
2023/10/31 09:18:31;;;;;;;;;;;;;;;12.78;83.22;99171.88;4194193;28;20035;-70
2023/10/31 09:20:33;;;;;;;;;;;;;;;12.72;82.06;99183.63;4192760;28;20027;-69
2023/10/31 09:22:34;;;;;;;;;;;;;;;12.72;82.45;99156.53;4194148;28;20391;-70
2023/10/31 09:24:37;;;;;;;;;;;;;;;12.76;82.54;99163.16;4194410;28;20019;-70
2023/10/31 09:26:44;;;;;;;;;;;;;;;12.77;82.47;99164.78;4194507;28;20020;-69
2023/10/31 09:28:49;;;;;;;;;;;;;;;12.76;82.30;99168.59;4193609;28;20015;-70
2023/10/31 09:30:52;;;;;;;;;;;;;;;12.75;82.32;99186.69;4193235;28;20392;-69
2023/10/31 09:32:52;;;;;;;;;;;;;;;12.77;82.41;99168.34;4193982;28;20099;-69
2023/10/31 09:34:54;;;;;;;;;;;;;;;12.81;82.70;99184.97;4194025;28;19935;-69
2023/10/31 09:36:56;;;;;;;;;;;;;;;12.81;82.74;99195.81;4194279;28;20462;-69
2023/10/31 09:38:58;;;;;;;;;;;;;;;12.80;83.01;99202.25;4195193;28;20028;-70
2023/10/31 09:41:03;;;;;;;;;;;;;;;12.83;82.91;99195.56;4194307;28;20015;-69
2023/10/31 09:43:07;;;;;;;;;;;;;;;12.82;82.80;99194.75;4194192;28;20019;-70
2023/10/31 09:45:09;;;;;;;;;;;;;;;12.84;82.73;99208.06;4193672;28;20043;-69
2023/10/31 09:47:10;;;;;;;;;;;;;;;12.87;83.01;99210.28;4194584;28;20019;-69
2023/10/31 09:49:12;;;;;;;;;;;;;;;12.87;82.92;99219.28;4194171;28;20007;-69
2023/10/31 09:51:14;;;;;;;;;;;;;;;12.92;82.14;99200.44;4194391;28;20041;-70
2023/10/31 09:53:17;;;;;;;;;;;;;;;12.92;81.62;99205.84;4191916;28;20023;-70
2023/10/31 09:55:19;;;;;;;;;;;;;;;12.95;81.58;99199.97;4187269;28;20449;-70
2023/10/31 09:57:21;;;;;;;;;;;;;;;12.95;81.68;99221.66;4193072;28;19929;-70
2023/10/31 09:59:24;;;;;;;;;;;;;;;12.96;81.57;99215.19;4193821;28;20018;-70
2023/10/31 10:01:27;;;;;;;;;;;;;;;12.97;81.32;99214.09;4191305;28;20027;-71
2023/10/31 10:03:29;;;;;;;;;;;;;;;12.97;81.75;99224.94;4193397;28;20028;-70
2023/10/31 10:05:31;;;;;;;;;;;;;;;12.98;81.71;99223.09;4176264;28;20019;-70
2023/10/31 10:07:34;;;;;;;;;;;;;;;13.00;81.76;99231.81;4193857;28;20028;-70
2023/10/31 10:09:39;;;;;;;;;;;;;;;13.02;81.65;99215.31;4193589;28;20038;-70
2023/10/31 10:11:40;;;;;;;;;;;;;;;13.00;81.28;99222.84;4193405;28;20016;-70
2023/10/31 10:13:42;;;;;;;;;;;;;;;13.00;81.61;99228.28;4194294;28;19978;-71
2023/10/31 10:15:48;;;;;;;;;;;;;;;13.02;81.52;99245.13;4193072;28;19924;-70
2023/10/31 10:17:51;;;;;;;;;;;;;;;13.05;81.20;99241.97;4194144;28;19924;-70
2023/10/31 10:20:05;;;;;;;;;;;;;;;13.05;81.15;99231.94;4175785;28;19925;-70
2023/10/31 10:22:07;;;;;;;;;;;;;;;13.08;80.55;99238.78;4185815;28;20014;-69
2023/10/31 10:24:09;;;;;;;;;;;;;;;13.10;79.88;99236.66;4209802;28;19932;-69
2023/10/31 10:26:14;;;;;;;;;;;;;;;13.08;80.14;99231.47;4193694;28;19978;-70
2023/10/31 10:28:19;;;;;;;;;;;;;;;13.10;79.99;99233.94;4192638;28;20383;-70
2023/10/31 10:30:21;;;;;;;;;;;;;;;13.12;79.21;99248.94;4190966;28;20023;-70
2023/10/31 10:32:25;;;;;;;;;;;;;;;13.14;78.87;99243.28;4192862;28;20028;-71
2023/10/31 10:34:27;;;;;;;;;;;;;;;13.13;78.89;99250.59;4194041;28;20019;-71